createdAt,value
2018-08-10T00:00:51.121Z,1.00
2018-08-10T00:03:19.673Z,1.00
2018-08-10T00:05:48.256Z,1.00
2018-08-10T00:08:16.793Z,1.03
2018-08-10T00:10:45.368Z,0.87
2018-08-10T00:13:13.960Z,1.00
2018-08-10T00:15:42.493Z,0.90
2018-08-10T00:18:11.065Z,1.10
2018-08-10T00:20:39.590Z,1.00
2018-08-10T00:23:08.885Z,0.97
2018-08-10T00:25:37.399Z,1.17
2018-08-10T00:28:06.747Z,1.10
2018-08-10T00:30:35.317Z,1.07
2018-08-10T00:33:03.954Z,1.00
2018-08-10T00:35:32.504Z,1.30
2018-08-10T00:38:01.056Z,1.00
2018-08-10T00:40:29.646Z,1.00
2018-08-10T00:42:58.198Z,0.90
2018-08-10T00:45:26.858Z,0.90
2018-08-10T00:47:55.410Z,0.80
2018-08-10T00:50:24.023Z,0.83
2018-08-10T00:52:52.562Z,0.80
2018-08-10T00:55:21.172Z,0.93
2018-08-10T00:57:49.951Z,1.20
2018-08-10T01:00:23.235Z,0.93
2018-08-10T01:02:52.730Z,0.80
2018-08-10T01:05:21.378Z,0.80
2018-08-10T01:07:49.953Z,0.70
2018-08-10T01:10:19.746Z,0.60
2018-08-10T01:12:48.514Z,0.90
2018-08-10T01:15:17.809Z,0.80
2018-08-10T01:17:46.960Z,0.70
2018-08-10T01:20:17.892Z,0.70
2018-08-10T01:22:51.566Z,0.63
2018-08-10T01:25:21.508Z,0.60
2018-08-10T01:27:55.331Z,0.70
2018-08-10T01:30:24.984Z,0.60
2018-08-10T01:32:53.965Z,0.73
2018-08-10T01:35:23.090Z,0.67
2018-08-10T01:37:51.648Z,0.60
2018-08-10T01:40:20.211Z,0.60
2018-08-10T01:42:48.759Z,0.70
2018-08-10T01:45:17.554Z,0.70
2018-08-10T01:47:46.150Z,0.60
2018-08-10T01:50:14.760Z,0.57
2018-08-10T01:52:43.354Z,0.70
2018-08-10T01:55:12.083Z,0.60
2018-08-10T01:57:40.838Z,0.50
2018-08-10T02:00:09.885Z,0.60
2018-08-10T02:02:38.459Z,0.60
2018-08-10T02:05:09.631Z,0.60
2018-08-10T02:07:39.059Z,0.60
2018-08-10T02:10:10.915Z,0.60
2018-08-10T02:12:40.135Z,0.50
2018-08-10T02:15:11.100Z,0.70
2018-08-10T02:17:39.882Z,0.50
2018-08-10T02:20:11.165Z,0.60
2018-08-10T02:22:39.702Z,0.70
2018-08-10T02:25:09.920Z,0.50
2018-08-10T02:27:38.765Z,0.63
2018-08-10T02:30:09.239Z,0.63
2018-08-10T02:32:38.148Z,0.60
2018-08-10T02:35:07.024Z,0.57
2018-08-10T02:37:35.929Z,0.50
2018-08-10T02:40:05.946Z,0.60
2018-08-10T02:42:34.677Z,0.50
2018-08-10T02:45:03.238Z,0.50
2018-08-10T02:47:31.779Z,0.50
2018-08-10T02:50:00.302Z,0.50
2018-08-10T02:52:28.940Z,0.53
2018-08-10T02:54:57.455Z,0.50
2018-08-10T02:57:25.926Z,0.97
2018-08-10T02:59:54.380Z,0.50
2018-08-10T03:02:22.931Z,0.50
2018-08-10T03:04:51.469Z,0.50
2018-08-10T03:07:19.987Z,0.50
2018-08-10T03:09:48.554Z,0.50
2018-08-10T03:12:17.164Z,0.50
2018-08-10T03:14:45.656Z,0.53
2018-08-10T03:17:14.216Z,0.60
2018-08-10T03:19:42.679Z,0.47
2018-08-10T03:22:11.216Z,0.50
2018-08-10T03:24:39.704Z,0.60
2018-08-10T03:27:08.554Z,0.50
2018-08-10T03:29:37.318Z,0.50
2018-08-10T03:32:06.129Z,0.67
2018-08-10T03:34:34.707Z,0.50
2018-08-10T03:37:03.224Z,0.60
2018-08-10T03:39:31.776Z,0.50
2018-08-10T03:42:00.277Z,0.60
2018-08-10T03:44:28.795Z,0.60
2018-08-10T03:46:57.310Z,0.50
2018-08-10T03:49:25.881Z,0.67
2018-08-10T03:51:54.367Z,0.60
2018-08-10T03:54:22.874Z,0.60
2018-08-10T03:56:51.347Z,0.50
2018-08-10T03:59:19.859Z,0.50
2018-08-10T04:01:48.376Z,0.60
2018-08-10T04:04:16.864Z,0.60
2018-08-10T04:06:45.394Z,0.50
2018-08-10T04:09:13.855Z,0.50
2018-08-10T04:11:42.999Z,0.60
2018-08-10T04:14:11.640Z,0.67
2018-08-10T04:16:40.131Z,0.50
2018-08-10T04:19:08.604Z,0.50
2018-08-10T04:21:37.121Z,0.50
2018-08-10T04:24:05.737Z,0.60
2018-08-10T04:26:35.438Z,0.60
2018-08-10T04:29:04.157Z,0.50
2018-08-10T04:31:32.662Z,0.50
2018-08-10T04:34:01.203Z,0.50
2018-08-10T04:36:29.750Z,0.50
2018-08-10T04:38:58.253Z,1.00
2018-08-10T04:41:26.743Z,0.50
2018-08-10T04:43:55.233Z,0.50
2018-08-10T04:46:23.735Z,0.60
2018-08-10T04:48:52.814Z,0.60
2018-08-10T04:51:21.362Z,0.70
2018-08-10T04:53:49.896Z,0.50
2018-08-10T04:56:18.383Z,1.00
2018-08-10T04:58:46.941Z,0.50
2018-08-10T05:01:15.455Z,0.50
2018-08-10T05:03:43.978Z,0.60
2018-08-10T05:06:12.407Z,0.60
2018-08-10T05:08:40.897Z,0.80
2018-08-10T05:11:09.418Z,0.57
2018-08-10T05:13:37.902Z,0.60
2018-08-10T05:16:06.409Z,0.50
2018-08-10T05:18:35.022Z,0.63
2018-08-10T05:21:03.497Z,0.70
2018-08-10T05:23:32.007Z,0.50
2018-08-10T05:26:00.632Z,0.63
2018-08-10T05:28:29.143Z,0.50
2018-08-10T05:30:57.619Z,0.60
2018-08-10T05:33:26.229Z,0.60
2018-08-10T05:35:54.686Z,0.70
2018-08-10T05:38:23.193Z,0.50
2018-08-10T05:40:51.712Z,0.70
2018-08-10T05:43:20.168Z,0.50
2018-08-10T05:45:48.655Z,0.50
2018-08-10T05:48:17.138Z,0.70
2018-08-10T05:50:45.619Z,0.60
2018-08-10T05:53:14.334Z,0.60
2018-08-10T05:55:42.966Z,0.67
2018-08-10T05:58:11.443Z,0.63
2018-08-10T06:00:39.977Z,0.73
2018-08-10T06:03:10.214Z,0.50
2018-08-10T06:05:38.654Z,0.50
2018-08-10T06:08:07.142Z,0.57
2018-08-10T06:10:35.618Z,0.60
2018-08-10T06:13:04.126Z,0.60
2018-08-10T06:15:34.147Z,0.60
2018-08-10T06:18:02.606Z,0.70
2018-08-10T06:20:31.076Z,0.70
2018-08-10T06:22:59.591Z,0.60
2018-08-10T06:25:28.184Z,0.60
2018-08-10T06:27:56.682Z,0.67
2018-08-10T06:30:25.118Z,0.50
2018-08-10T06:32:53.684Z,0.50
2018-08-10T06:35:22.268Z,0.60
2018-08-10T06:37:52.467Z,0.50
2018-08-10T06:40:20.959Z,0.57
2018-08-10T06:42:49.430Z,0.50
2018-08-10T06:45:18.035Z,0.50
2018-08-10T06:47:46.507Z,0.60
2018-08-10T06:50:15.070Z,0.70
2018-08-10T06:52:43.547Z,0.70
2018-08-10T06:55:12.032Z,0.50
2018-08-10T06:57:40.528Z,0.60
2018-08-10T07:00:09.215Z,0.60
2018-08-10T07:02:37.699Z,0.53
2018-08-10T07:05:06.800Z,0.50
2018-08-10T07:07:35.522Z,0.50
2018-08-10T07:10:05.031Z,0.50
2018-08-10T07:12:33.518Z,0.63
2018-08-10T07:15:02.128Z,0.50
2018-08-10T07:17:30.674Z,0.50
2018-08-10T07:19:59.183Z,0.50
2018-08-10T07:22:27.913Z,0.47
2018-08-10T07:24:56.436Z,0.60
2018-08-10T07:27:24.932Z,0.40
2018-08-10T07:29:53.404Z,0.50
2018-08-10T07:32:21.896Z,0.50
2018-08-10T07:34:50.390Z,0.70
2018-08-10T07:37:19.039Z,0.53
2018-08-10T07:39:47.524Z,0.40
2018-08-10T07:42:15.990Z,0.50
2018-08-10T07:44:44.751Z,0.57
2018-08-10T07:47:13.272Z,0.60
2018-08-10T07:49:41.777Z,0.60
2018-08-10T07:52:10.278Z,0.40
2018-08-10T07:54:38.863Z,0.70
2018-08-10T07:57:07.793Z,0.60
2018-08-10T07:59:36.277Z,0.50
2018-08-10T08:02:04.935Z,0.60
2018-08-10T08:04:33.480Z,0.40
2018-08-10T08:07:02.171Z,0.50
2018-08-10T08:09:30.571Z,0.50
2018-08-10T08:11:59.095Z,0.40
2018-08-10T08:14:27.577Z,0.43
2018-08-10T08:16:56.093Z,0.50
2018-08-10T08:19:24.644Z,0.50
2018-08-10T08:22:20.038Z,0.70
2018-08-10T08:24:48.632Z,0.60
2018-08-10T08:27:18.259Z,0.60
2018-08-10T08:29:46.803Z,0.70
2018-08-10T08:32:15.388Z,0.60
2018-08-10T08:34:44.190Z,0.50
2018-08-10T08:37:12.649Z,0.70
2018-08-10T08:40:48.102Z,0.57
2018-08-10T08:43:26.732Z,0.40
2018-08-10T08:46:01.269Z,0.50
2018-08-10T08:48:31.099Z,0.50
2018-08-10T08:51:03.748Z,0.50
2018-08-10T08:53:32.456Z,0.50
2018-08-10T08:56:03.678Z,0.50
2018-08-10T08:58:32.795Z,0.50
2018-08-10T09:01:01.402Z,0.40
2018-08-10T09:03:41.391Z,0.50
2018-08-10T09:06:10.339Z,0.50
2018-08-10T09:08:38.977Z,0.50
2018-08-10T09:11:08.536Z,0.50
2018-08-10T09:14:46.746Z,0.50
2018-08-10T09:17:15.381Z,0.50
2018-08-10T09:19:43.798Z,0.43
2018-08-10T09:22:13.120Z,0.50
2018-08-10T09:24:42.358Z,0.40
2018-08-10T09:27:11.069Z,0.50
2018-08-10T09:29:39.594Z,0.57
2018-08-10T09:32:08.245Z,0.50
2018-08-10T09:34:36.745Z,0.70
2018-08-10T09:37:05.782Z,0.50
2018-08-10T09:39:34.380Z,0.50
2018-08-10T09:42:03.674Z,0.50
2018-08-10T09:44:32.726Z,0.50
2018-08-10T09:47:01.962Z,0.50
2018-08-10T09:49:34.596Z,0.60
2018-08-10T09:52:03.316Z,0.63
2018-08-10T09:54:31.810Z,0.50
2018-08-10T09:57:02.864Z,0.50
2018-08-10T09:59:31.930Z,0.50
2018-08-10T10:02:06.078Z,0.50
2018-08-10T10:04:34.791Z,0.50
2018-08-10T10:07:03.461Z,0.60
2018-08-10T10:09:32.409Z,0.50
2018-08-10T10:12:00.929Z,0.60
2018-08-10T10:14:29.393Z,0.40
2018-08-10T10:16:57.974Z,0.53
2018-08-10T10:19:26.649Z,0.53
2018-08-10T10:21:55.173Z,0.53
2018-08-10T10:24:23.715Z,0.70
2018-08-10T10:26:52.191Z,0.60
2018-08-10T10:29:20.743Z,0.60
2018-08-10T10:31:49.227Z,0.60
2018-08-10T10:34:17.757Z,0.50
2018-08-10T10:36:46.438Z,0.50
2018-08-10T10:39:14.928Z,0.60
2018-08-10T10:41:43.406Z,0.50
2018-08-10T10:44:11.915Z,0.50
2018-08-10T10:46:40.412Z,0.60
2018-08-10T10:49:08.913Z,0.70
2018-08-10T10:51:37.410Z,0.50
2018-08-10T10:54:06.068Z,0.60
2018-08-10T10:56:34.570Z,0.50
2018-08-10T10:59:03.104Z,0.60
2018-08-10T11:01:31.668Z,0.50
2018-08-10T11:04:00.211Z,0.60
2018-08-10T11:06:28.793Z,0.50
2018-08-10T11:08:57.167Z,0.50
2018-08-10T11:11:25.703Z,0.60
2018-08-10T11:13:54.172Z,0.50
2018-08-10T11:16:22.796Z,0.50
2018-08-10T11:18:51.392Z,0.60
2018-08-10T11:21:20.026Z,0.53
2018-08-10T11:23:48.491Z,0.60
2018-08-10T11:26:17.039Z,0.50
2018-08-10T11:28:45.551Z,0.50
2018-08-10T11:31:14.075Z,0.50
2018-08-10T11:33:42.627Z,0.57
2018-08-10T11:36:11.090Z,0.40
2018-08-10T11:38:39.841Z,0.50
2018-08-10T11:41:08.652Z,0.60
2018-08-10T11:43:37.264Z,0.50
2018-08-10T11:46:05.976Z,0.60
2018-08-10T11:48:34.528Z,0.70
2018-08-10T11:51:03.054Z,0.60
2018-08-10T11:53:31.747Z,0.60
2018-08-10T11:56:00.311Z,0.60
2018-08-10T11:58:28.821Z,0.53
2018-08-10T12:00:57.328Z,0.47
2018-08-10T12:03:26.017Z,0.70
2018-08-10T12:05:54.625Z,0.60
2018-08-10T12:08:23.114Z,0.70
2018-08-10T12:10:51.602Z,0.60
2018-08-10T12:13:20.075Z,0.60
2018-08-10T12:15:48.695Z,0.60
2018-08-10T12:18:17.261Z,0.50
2018-08-10T12:20:45.739Z,0.60
2018-08-10T12:23:14.223Z,0.60
2018-08-10T12:25:42.751Z,0.80
2018-08-10T12:28:11.381Z,0.60
2018-08-10T12:30:39.943Z,0.70
2018-08-10T12:33:08.763Z,0.90
2018-08-10T12:35:37.261Z,0.60
2018-08-10T12:38:06.105Z,0.80
2018-08-10T12:40:34.642Z,0.63
2018-08-10T12:43:03.204Z,0.70
2018-08-10T12:45:32.006Z,0.70
2018-08-10T12:48:00.528Z,0.70
2018-08-10T12:50:29.355Z,0.80
2018-08-10T12:52:58.647Z,0.70
2018-08-10T12:55:27.158Z,0.70
2018-08-10T12:57:55.657Z,0.63
2018-08-10T13:00:24.285Z,0.60
2018-08-10T13:02:52.944Z,0.60
2018-08-10T13:05:21.373Z,0.50
2018-08-10T13:07:50.566Z,0.70
2018-08-10T13:10:19.645Z,0.50
2018-08-10T13:12:49.801Z,0.60
2018-08-10T13:15:18.296Z,0.67
2018-08-10T13:17:46.882Z,0.70
2018-08-10T13:20:15.601Z,0.70
2018-08-10T13:22:44.647Z,0.60
2018-08-10T13:25:13.205Z,0.80
2018-08-10T13:27:41.709Z,0.73
2018-08-10T13:30:11.789Z,0.80
2018-08-10T13:32:40.291Z,0.60
2018-08-10T13:35:08.878Z,0.70
2018-08-10T13:37:37.390Z,0.63
2018-08-10T13:40:06.015Z,0.80
2018-08-10T13:42:34.627Z,0.67
2018-08-10T13:45:03.467Z,0.70
2018-08-10T13:47:32.019Z,0.70
2018-08-10T13:50:00.641Z,0.57
2018-08-10T13:52:29.290Z,0.57
2018-08-10T13:54:57.881Z,0.60
2018-08-10T13:57:26.419Z,0.60
2018-08-10T13:59:54.930Z,0.70
2018-08-10T14:02:23.541Z,0.70
2018-08-10T14:04:52.098Z,0.63
2018-08-10T14:07:20.739Z,0.70
2018-08-10T14:09:49.256Z,0.70
2018-08-10T14:12:17.695Z,0.80
2018-08-10T14:14:46.178Z,0.60
2018-08-10T14:17:14.857Z,0.70
2018-08-10T14:19:43.387Z,0.70
2018-08-10T14:22:11.899Z,0.70
2018-08-10T14:24:40.484Z,0.60
2018-08-10T14:27:08.984Z,0.77
2018-08-10T14:29:37.510Z,0.70
2018-08-10T14:32:06.156Z,0.60
2018-08-10T14:34:34.840Z,0.77
2018-08-10T14:37:03.528Z,0.63
2018-08-10T14:39:32.100Z,0.90
2018-08-10T14:42:00.702Z,0.70
2018-08-10T14:44:29.240Z,0.70
2018-08-10T14:46:57.806Z,0.73
2018-08-10T14:49:26.600Z,0.80
2018-08-10T14:51:55.201Z,0.70
2018-08-10T14:54:23.729Z,0.70
2018-08-10T14:56:52.351Z,0.70
2018-08-10T14:59:20.832Z,0.70
2018-08-10T15:01:49.495Z,0.70
2018-08-10T15:04:17.984Z,0.80
2018-08-10T15:06:46.526Z,0.60
2018-08-10T15:09:15.092Z,0.60
2018-08-10T15:11:44.417Z,0.70
2018-08-10T15:14:12.884Z,0.70
2018-08-10T15:16:42.164Z,0.70
2018-08-10T15:19:10.670Z,0.70
2018-08-10T15:21:39.165Z,0.60
2018-08-10T15:24:07.738Z,0.73
2018-08-10T15:26:36.331Z,0.70
2018-08-10T15:29:05.495Z,0.60
2018-08-10T15:31:34.166Z,0.70
2018-08-10T15:34:02.703Z,0.73
2018-08-10T15:36:31.233Z,0.60
2018-08-10T15:38:59.758Z,0.70
2018-08-10T15:41:28.286Z,0.80
2018-08-10T15:43:56.784Z,0.80
2018-08-10T15:46:25.277Z,0.70
2018-08-10T15:48:53.963Z,0.80
2018-08-10T15:51:22.460Z,0.60
2018-08-10T15:53:51.054Z,0.70
2018-08-10T15:56:19.690Z,0.73
2018-08-10T15:58:48.070Z,0.63
2018-08-10T16:01:16.608Z,0.60
2018-08-10T16:03:45.138Z,0.70
2018-08-10T16:06:13.691Z,0.80
2018-08-10T16:08:42.262Z,1.00
2018-08-10T16:11:10.775Z,0.80
2018-08-10T16:13:39.304Z,0.63
2018-08-10T16:16:08.008Z,1.00
2018-08-10T16:18:36.522Z,0.70
2018-08-10T16:21:05.199Z,0.80
2018-08-10T16:23:33.786Z,0.77
2018-08-10T16:26:02.334Z,0.70
2018-08-10T16:28:30.823Z,0.80
2018-08-10T16:30:59.456Z,0.80
2018-08-10T16:33:28.001Z,0.77
2018-08-10T16:35:56.682Z,0.80
2018-08-10T16:38:25.198Z,0.90
2018-08-10T16:40:53.730Z,0.97
2018-08-10T16:43:22.228Z,0.90
2018-08-10T16:45:50.948Z,0.83
2018-08-10T16:48:19.444Z,0.80
2018-08-10T16:50:48.160Z,0.80
2018-08-10T16:53:16.565Z,0.80
2018-08-10T16:55:45.079Z,0.70
2018-08-10T16:58:13.567Z,1.20
2018-08-10T17:00:42.155Z,0.90
2018-08-10T17:03:10.658Z,1.07
2018-08-10T17:05:39.233Z,0.80
2018-08-10T17:08:07.739Z,1.00
2018-08-10T17:10:36.247Z,0.90
2018-08-10T17:13:04.815Z,0.77
2018-08-10T17:15:33.284Z,0.80
2018-08-10T17:18:01.847Z,0.80
2018-08-10T17:20:30.312Z,1.30
2018-08-10T17:22:58.776Z,0.87
2018-08-10T17:25:27.782Z,0.80
2018-08-10T17:27:56.319Z,0.73
2018-08-10T17:30:24.884Z,0.70
2018-08-10T17:32:53.416Z,0.70
2018-08-10T17:35:22.111Z,0.90
2018-08-10T17:37:50.635Z,0.80
2018-08-10T17:40:19.242Z,1.00
2018-08-10T17:42:47.815Z,1.23
2018-08-10T17:45:17.542Z,1.03
2018-08-10T17:47:46.281Z,0.70
2018-08-10T17:50:18.210Z,0.70
2018-08-10T17:52:52.104Z,0.70
2018-08-10T17:55:21.307Z,0.77
2018-08-10T17:57:49.883Z,0.87
2018-08-10T18:00:20.230Z,0.73
2018-08-10T18:02:49.410Z,0.70
2018-08-10T18:05:18.743Z,0.60
2018-08-10T18:07:47.652Z,0.80
2018-08-10T18:10:16.871Z,0.77
2018-08-10T18:12:45.908Z,0.90
2018-08-10T18:15:15.943Z,0.70
2018-08-10T18:17:45.059Z,0.73
2018-08-10T18:20:15.851Z,0.77
2018-08-10T18:22:46.025Z,0.87
2018-08-10T18:25:15.893Z,1.00
2018-08-10T18:27:44.447Z,0.80
2018-08-10T18:30:16.458Z,0.80
2018-08-10T18:32:45.440Z,0.70
2018-08-10T18:35:14.014Z,0.70
2018-08-10T18:37:43.259Z,0.70
2018-08-10T18:40:13.470Z,0.90
2018-08-10T18:42:43.281Z,0.80
2018-08-10T18:45:13.797Z,1.00
2018-08-10T18:47:42.487Z,0.83
2018-08-10T18:50:12.577Z,0.90
2018-08-10T18:52:41.413Z,0.80
2018-08-10T18:55:11.651Z,0.80
2018-08-10T18:57:40.172Z,0.70
2018-08-10T19:00:14.323Z,0.80
2018-08-10T19:02:43.240Z,0.90
2018-08-10T19:05:13.314Z,0.90
2018-08-10T19:07:42.097Z,0.90
2018-08-10T19:10:11.911Z,0.60
2018-08-10T19:12:40.530Z,1.00
2018-08-10T19:15:11.447Z,1.00
2018-08-10T19:17:40.323Z,1.00
2018-08-10T19:20:09.570Z,1.10
2018-08-10T19:22:38.416Z,0.90
2018-08-10T19:25:08.795Z,0.90
2018-08-10T19:27:37.484Z,1.00
2018-08-10T19:30:09.763Z,0.90
2018-08-10T19:32:38.312Z,0.83
2018-08-10T19:35:07.107Z,0.93
2018-08-10T19:37:35.982Z,0.93
2018-08-10T19:40:06.480Z,0.90
2018-08-10T19:42:35.016Z,1.10
2018-08-10T19:45:03.575Z,1.10
2018-08-10T19:47:32.127Z,0.90
2018-08-10T19:50:00.632Z,1.00
2018-08-10T19:52:29.310Z,1.20
2018-08-10T19:54:57.982Z,1.00
2018-08-10T19:57:26.691Z,1.40
2018-08-10T19:59:55.204Z,0.90
2018-08-10T20:02:23.720Z,1.00
2018-08-10T20:04:52.258Z,0.93
2018-08-10T20:07:20.829Z,0.80
2018-08-10T20:09:49.354Z,0.80
2018-08-10T20:12:17.897Z,1.00
2018-08-10T20:14:46.466Z,0.80
2018-08-10T20:17:21.635Z,0.97
2018-08-10T20:19:50.136Z,1.03
2018-08-10T20:22:19.437Z,0.97
2018-08-10T20:24:49.332Z,0.90
2018-08-10T20:27:17.901Z,1.27
2018-08-10T20:29:46.443Z,0.93
2018-08-10T20:32:15.028Z,0.97
2018-08-10T20:34:44.489Z,1.10
2018-08-10T20:37:13.083Z,1.00
2018-08-10T20:39:41.626Z,0.90
2018-08-10T20:42:10.373Z,0.87
2018-08-10T20:44:38.995Z,0.90
2018-08-10T20:47:07.675Z,1.10
2018-08-10T20:49:36.390Z,1.07
2018-08-10T20:52:05.037Z,1.33
2018-08-10T20:54:33.597Z,1.40
2018-08-10T20:57:02.270Z,1.30
2018-08-10T20:59:30.859Z,1.40
2018-08-10T21:01:59.408Z,1.30
2018-08-10T21:04:28.170Z,1.30
2018-08-10T21:06:56.645Z,1.50
2018-08-10T21:09:25.167Z,1.20
2018-08-10T21:11:53.770Z,1.10
2018-08-10T21:14:22.435Z,1.30
2018-08-10T21:16:50.945Z,1.30
2018-08-10T21:19:19.507Z,1.40
2018-08-10T21:21:48.172Z,1.57
2018-08-10T21:24:16.763Z,1.40
2018-08-10T21:26:45.374Z,1.50
2018-08-10T21:29:13.993Z,1.47
2018-08-10T21:31:42.530Z,1.40
2018-08-10T21:34:11.136Z,1.60
2018-08-10T21:36:40.145Z,1.70
2018-08-10T21:39:11.097Z,1.47
2018-08-10T21:41:39.908Z,1.40
2018-08-10T21:44:09.125Z,1.40
2018-08-10T21:46:37.592Z,1.30
2018-08-10T21:49:06.684Z,1.33
2018-08-10T21:51:35.524Z,0.93
2018-08-10T21:54:04.904Z,1.67
2018-08-10T21:56:33.381Z,1.63
2018-08-10T21:59:02.018Z,1.40
2018-08-10T22:01:30.528Z,1.20
2018-08-10T22:03:59.095Z,1.30
2018-08-10T22:06:27.666Z,1.20
2018-08-10T22:08:56.176Z,1.40
2018-08-10T22:11:24.834Z,1.20
2018-08-10T22:13:58.695Z,1.30
2018-08-10T22:16:32.626Z,1.10
2018-08-10T22:19:06.388Z,1.20
2018-08-10T22:21:34.888Z,1.20
2018-08-10T22:24:03.398Z,1.17
2018-08-10T22:26:31.919Z,1.20
2018-08-10T22:29:00.633Z,1.30
2018-08-10T22:31:29.279Z,1.37
2018-08-10T22:33:57.822Z,1.20
2018-08-10T22:36:26.507Z,1.57
2018-08-10T22:38:55.014Z,1.30
2018-08-10T22:41:23.666Z,1.40
2018-08-10T22:43:52.171Z,1.53
2018-08-10T22:46:20.893Z,1.30
2018-08-10T22:48:49.384Z,1.27
2018-08-10T22:51:18.130Z,1.50
2018-08-10T22:53:46.746Z,1.13
2018-08-10T22:56:15.307Z,1.30
2018-08-10T22:58:43.865Z,1.17
2018-08-10T23:01:12.371Z,1.53
2018-08-10T23:03:40.986Z,1.40
2018-08-10T23:06:09.519Z,1.30
2018-08-10T23:08:38.110Z,2.00
2018-08-10T23:11:06.574Z,1.23
2018-08-10T23:13:35.103Z,1.07
2018-08-10T23:16:03.742Z,1.20
2018-08-10T23:18:32.344Z,1.10
2018-08-10T23:21:00.840Z,1.30
2018-08-10T23:23:29.475Z,1.60
2018-08-10T23:25:58.107Z,1.07
2018-08-10T23:28:26.772Z,1.30
2018-08-10T23:30:55.271Z,1.40
2018-08-10T23:33:23.762Z,1.33
2018-08-10T23:35:52.276Z,2.30
2018-08-10T23:38:20.835Z,1.40
2018-08-10T23:40:49.401Z,1.23
2018-08-10T23:43:17.941Z,1.30
2018-08-10T23:45:46.538Z,1.20
2018-08-10T23:48:15.111Z,1.47
2018-08-10T23:50:43.687Z,1.37
2018-08-10T23:53:12.178Z,1.40
2018-08-10T23:55:40.750Z,1.30
2018-08-10T23:58:09.396Z,1.17
